createdAt,value
2018-09-02T03:26:01.315Z,0.1
2018-09-02T03:28:01.132Z,0.2
2018-09-02T03:29:01.090Z,0.3
2018-09-02T03:30:01.099Z,0.3
2018-09-02T03:31:01.246Z,0.4
2018-09-02T03:32:01.058Z,0.5
2018-09-02T03:34:01.058Z,0.6
2018-09-02T03:35:01.061Z,0.7
2018-09-02T03:37:01.301Z,0.9
2018-09-02T03:38:06.065Z,1.0
2018-09-02T03:39:01.059Z,1.1
2018-09-02T03:40:01.065Z,1.3
2018-09-02T03:41:01.095Z,1.4
2018-09-02T03:42:01.233Z,1.5
2018-09-02T03:43:06.066Z,1.7
2018-09-02T03:44:01.059Z,1.9
2018-09-02T03:45:01.095Z,2.2
2018-09-02T03:46:01.074Z,2.5
2018-09-02T03:47:01.240Z,2.9
2018-09-02T03:48:06.094Z,3.4
2018-09-02T03:49:01.060Z,3.9
2018-09-02T03:50:01.060Z,4.6
2018-09-02T03:51:01.099Z,5.4
2018-09-02T03:52:01.272Z,6.3
2018-09-02T03:53:06.095Z,7.3
2018-09-02T03:54:01.095Z,8.6
2018-09-02T03:55:01.064Z,10.1
2018-09-02T03:56:01.095Z,11.8
2018-09-02T03:57:01.208Z,13.9
2018-09-02T03:58:06.096Z,16.4
2018-09-02T03:59:01.106Z,19.3
2018-09-02T04:00:01.143Z,22.8
2018-09-02T04:01:01.098Z,26.9
2018-09-02T04:02:01.277Z,31.8
2018-09-02T04:03:01.175Z,37.6
2018-09-02T04:04:01.068Z,44.5
2018-09-02T04:05:01.135Z,52.7
2018-09-02T04:06:01.105Z,62.3
2018-09-02T04:07:01.215Z,73.5
2018-09-02T04:08:01.103Z,86.5
2018-09-02T04:09:01.098Z,101.6
2018-09-02T04:10:01.126Z,119.3
2018-09-02T04:11:01.099Z,139.7
2018-09-02T04:12:01.246Z,163.3
2018-09-02T04:13:01.130Z,190.3
2018-09-02T04:14:01.098Z,221.1
2018-09-02T04:15:01.103Z,255.7
2018-09-02T04:17:01.347Z,299.9
2018-09-02T04:18:01.054Z,349.3
2018-09-02T04:19:06.054Z,404.0
2018-09-02T04:20:01.068Z,464.3
2018-09-02T04:21:01.053Z,530.6
2018-09-02T04:22:01.323Z,603.5
2018-09-02T04:23:01.090Z,683.6
2018-09-02T04:24:01.061Z,771.7
2018-09-02T04:25:01.055Z,868.1
2018-09-02T04:26:01.089Z,973.1
2018-09-02T04:27:01.203Z,1086.7
2018-09-02T04:28:01.089Z,1209.3
2018-09-02T04:29:01.055Z,1341.4
2018-09-02T04:30:06.057Z,1483.4
2018-09-02T04:31:01.091Z,1635.5
2018-09-02T04:32:01.201Z,1792.9
2018-09-02T04:33:01.066Z,1961.0
2018-09-02T04:34:01.089Z,2140.5
2018-09-02T04:35:01.095Z,2331.9
2018-09-02T04:36:01.086Z,2535.7
2018-09-02T04:37:01.203Z,2751.4
2018-09-02T04:38:01.098Z,2978.9
2018-09-02T04:39:01.055Z,3217.9
2018-09-02T04:40:01.056Z,3467.6
2018-09-02T04:41:06.092Z,3726.3
2018-09-02T04:42:01.200Z,3993.1
2018-09-02T04:43:01.058Z,4267.6
2018-09-02T04:44:01.114Z,4548.9
2018-09-02T04:45:01.120Z,4835.9
2018-09-02T04:46:01.119Z,5128.7
2018-09-02T04:47:01.235Z,5428.3
2018-09-02T04:48:01.091Z,5734.5
2018-09-02T04:49:01.080Z,6047.1
2018-09-02T04:50:01.094Z,6365.3
2018-09-02T04:51:01.059Z,6688.5
2018-09-02T04:52:01.299Z,7015.1
2018-09-02T04:53:01.058Z,7344.1
2018-09-02T04:54:01.142Z,7674.6
2018-09-02T04:55:01.062Z,8007.7
2018-09-02T04:56:01.094Z,8344.6
2018-09-02T04:57:01.235Z,8684.3
2018-09-02T04:58:01.101Z,9027.0
2018-09-02T04:59:06.097Z,9373.8
2018-09-02T05:00:01.069Z,9726.9
2018-09-02T05:01:01.100Z,10084.0
2018-09-02T05:02:01.369Z,10442.2
2018-09-02T05:03:01.071Z,10797.9
2018-09-02T05:04:06.101Z,11148.6
2018-09-02T05:05:01.103Z,11494.7
2018-09-02T05:06:01.069Z,11840.5
2018-09-02T05:07:01.243Z,12190.0
2018-09-02T05:08:01.102Z,12543.8
2018-09-02T05:09:01.101Z,12898.0
2018-09-02T05:10:01.066Z,13254.1
2018-09-02T05:11:01.068Z,13621.6
2018-09-02T05:13:01.386Z,14078.8
2018-09-02T05:14:01.166Z,14594.8
2018-09-02T05:15:01.085Z,15170.0
2018-09-02T05:16:01.089Z,15799.5
2018-09-02T05:17:01.081Z,16476.3
2018-09-02T05:18:01.227Z,17188.7
2018-09-02T05:19:01.084Z,17927.5
2018-09-02T05:20:01.058Z,18687.8
2018-09-02T05:21:01.117Z,19459.2
2018-09-02T05:22:01.092Z,20215.3
2018-09-02T05:23:01.229Z,20932.0
2018-09-02T05:24:01.057Z,21613.8
2018-09-02T05:25:01.090Z,22283.0
2018-09-02T05:26:01.060Z,22942.1
2018-09-02T05:27:01.091Z,23570.8
2018-09-02T05:28:01.236Z,24080.8
2018-09-02T05:29:01.100Z,24539.5
2018-09-02T05:30:01.097Z,24958.7
2018-09-02T05:31:06.092Z,25337.7
2018-09-02T05:32:01.062Z,25689.3
2018-09-02T05:33:01.295Z,26016.8
2018-09-02T05:34:01.097Z,26341.5
2018-09-02T05:35:01.090Z,26638.9
2018-09-02T05:36:01.060Z,26928.1
2018-09-02T05:37:01.172Z,27246.4
2018-09-02T05:38:01.207Z,27604.7
2018-09-02T05:39:01.126Z,27978.9
2018-09-02T05:40:01.063Z,28394.2
2018-09-02T05:41:01.097Z,28822.0
2018-09-02T05:42:01.066Z,29268.3
2018-09-02T05:43:01.205Z,29754.5
2018-09-02T05:44:06.200Z,30257.7
2018-09-02T05:45:01.102Z,30766.7
2018-09-02T05:46:01.098Z,31297.8
2018-09-02T05:47:01.068Z,31850.8
2018-09-02T05:48:01.207Z,32416.6
2018-09-02T05:49:01.130Z,32963.1
2018-09-02T05:50:01.066Z,33497.3
2018-09-02T05:51:01.102Z,33987.9
2018-09-02T05:52:01.073Z,34409.4
2018-09-02T05:53:01.238Z,34774.8
2018-09-02T05:54:06.096Z,35118.1
2018-09-02T05:55:01.067Z,35416.7
2018-09-02T05:56:01.072Z,35710.2
2018-09-02T05:57:01.068Z,36003.3
2018-09-02T05:58:01.218Z,36281.1
2018-09-02T05:59:01.128Z,36529.9
2018-09-02T06:01:01.056Z,36766.9
2018-09-02T06:02:01.055Z,36957.0
2018-09-02T06:03:01.257Z,37094.3
2018-09-02T06:04:01.088Z,37197.9
2018-09-02T06:05:01.116Z,37294.0
2018-09-02T06:06:01.102Z,37409.7
2018-09-02T06:07:01.085Z,37569.1
2018-09-02T06:08:01.229Z,37778.8
2018-09-02T06:09:01.151Z,38056.6
2018-09-02T06:10:01.065Z,38519.1
2018-09-02T06:11:01.054Z,39293.8
2018-09-02T06:12:01.058Z,40364.9
2018-09-02T06:13:01.274Z,41585.9
2018-09-02T06:14:01.057Z,42822.1
2018-09-02T06:15:01.130Z,43786.5
2018-09-02T06:16:01.095Z,44786.0
2018-09-02T06:17:01.069Z,46053.5
2018-09-02T06:18:01.202Z,47358.8
2018-09-02T06:19:01.061Z,48688.7
2018-09-02T06:20:01.124Z,50029.3
2018-09-02T06:21:01.093Z,51382.3
2018-09-02T06:22:01.066Z,52745.7
2018-09-02T06:23:01.212Z,54120.7
2018-09-02T06:24:01.064Z,55484.8
2018-09-02T06:25:01.122Z,56705.1
2018-09-02T06:26:01.097Z,57626.1
2018-09-02T06:27:01.062Z,58256.1
2018-09-02T06:28:01.239Z,58731.1
2018-09-02T06:29:01.097Z,59194.7
2018-09-02T06:30:06.162Z,59940.7
2018-09-02T06:31:01.097Z,60638.8
2018-09-02T06:32:01.069Z,61083.2
2018-09-02T06:33:01.504Z,61513.5
2018-09-02T06:34:01.067Z,61948.0
2018-09-02T06:35:01.098Z,62385.5
2018-09-02T06:36:01.106Z,62790.1
2018-09-02T06:37:01.068Z,63161.4
2018-09-02T06:38:01.246Z,63502.0
2018-09-02T06:39:01.070Z,63813.5
2018-09-02T06:40:06.105Z,64097.7
2018-09-02T06:41:01.115Z,64361.9
2018-09-02T06:42:01.075Z,64597.5
2018-09-02T06:43:01.219Z,64815.1
2018-09-02T06:44:01.071Z,65010.7
2018-09-02T06:45:06.285Z,65176.7
2018-09-02T06:46:01.080Z,65317.9
2018-09-02T06:47:01.108Z,65429.3
2018-09-02T06:49:01.231Z,65503.4
2018-09-02T06:50:01.061Z,65535.0
2018-09-02T07:00:01.378Z,65535.0
2018-09-02T07:15:01.338Z,65535.0
2018-09-02T07:30:01.392Z,65535.0
2018-09-02T07:45:01.283Z,65535.0
2018-09-02T08:00:06.162Z,65535.0
2018-09-02T08:15:04.482Z,65535.0
2018-09-02T08:30:01.178Z,65535.0
2018-09-02T08:45:01.274Z,65535.0
2018-09-02T09:00:03.150Z,65535.0
2018-09-02T09:15:01.100Z,65535.0
2018-09-02T09:30:01.223Z,65535.0
2018-09-02T09:45:01.173Z,65535.0
2018-09-02T10:00:01.231Z,65535.0
2018-09-02T10:15:01.110Z,65535.0
2018-09-02T10:30:01.156Z,65535.0
2018-09-02T10:45:01.098Z,65535.0
2018-09-02T11:00:01.097Z,65535.0
2018-09-02T11:15:06.104Z,65535.0
2018-09-02T11:30:01.104Z,65535.0
2018-09-02T11:45:01.149Z,65535.0
2018-09-02T12:00:01.089Z,65535.0
2018-09-02T12:15:02.289Z,65535.0
2018-09-02T12:30:01.058Z,65535.0
2018-09-02T12:45:01.098Z,65535.0
2018-09-02T13:00:01.337Z,65535.0
2018-09-02T13:15:01.119Z,65535.0
2018-09-02T13:30:01.060Z,65535.0
2018-09-02T13:45:01.236Z,65535.0
2018-09-02T14:00:01.310Z,65535.0
2018-09-02T14:15:01.050Z,65535.0
2018-09-02T14:21:01.092Z,65126.5
2018-09-02T14:22:01.296Z,64619.1
2018-09-02T14:30:01.359Z,64619.1
2018-09-02T14:36:01.233Z,65027.6
2018-09-02T14:37:01.079Z,65535.0
2018-09-02T14:45:01.272Z,65535.0
2018-09-02T15:00:01.067Z,65535.0
2018-09-02T15:15:01.052Z,65535.0
2018-09-02T15:30:01.438Z,65535.0
2018-09-02T15:45:01.256Z,65535.0
2018-09-02T15:52:01.237Z,65494.1
2018-09-02T15:53:01.062Z,64818.7
2018-09-02T15:54:01.063Z,64091.5
2018-09-02T15:55:01.101Z,64030.0
2018-09-02T15:58:01.097Z,63820.3
2018-09-02T15:59:01.104Z,63571.4
2018-09-02T16:00:01.096Z,62923.5
2018-09-02T16:01:01.197Z,62256.1
2018-09-02T16:02:01.243Z,61686.3
2018-09-02T16:03:01.064Z,60913.1
2018-09-02T16:05:01.047Z,59900.8
2018-09-02T16:06:01.046Z,58884.7
2018-09-02T16:07:01.293Z,57860.3
2018-09-02T16:08:01.086Z,56818.8
2018-09-02T16:09:01.086Z,56347.7
2018-09-02T16:10:01.046Z,55879.1
2018-09-02T16:11:01.050Z,54740.2
2018-09-02T16:12:01.290Z,53691.6
2018-09-02T16:13:01.081Z,52791.5
2018-09-02T16:14:01.060Z,52120.9
2018-09-02T16:15:01.054Z,51418.3
2018-09-02T16:16:01.057Z,50826.0
2018-09-02T16:17:01.226Z,50245.9
2018-09-02T16:18:01.094Z,49582.3
2018-09-02T16:19:01.090Z,49024.1
2018-09-02T16:20:01.078Z,48644.1
2018-09-02T16:21:01.053Z,48334.5
2018-09-02T16:22:01.231Z,47979.1
2018-09-02T16:23:01.089Z,47723.5
2018-09-02T16:24:01.088Z,47554.5
2018-09-02T16:25:01.091Z,47444.5
2018-09-02T16:26:01.092Z,47532.6
2018-09-02T16:27:01.249Z,47439.5
2018-09-02T16:28:01.086Z,46702.5
2018-09-02T16:29:01.154Z,45910.9
2018-09-02T16:30:01.086Z,45511.9
2018-09-02T16:31:01.088Z,45215.9
2018-09-02T16:32:01.230Z,44787.9
2018-09-02T16:33:01.085Z,44378.8
2018-09-02T16:34:01.051Z,44004.7
2018-09-02T16:35:01.057Z,43804.8
2018-09-02T16:36:01.232Z,43482.1
2018-09-02T16:37:01.264Z,43038.1
2018-09-02T16:38:01.055Z,42553.1
2018-09-02T16:39:01.057Z,42155.5
2018-09-02T16:40:01.058Z,41890.3
2018-09-02T16:41:01.088Z,41412.4
2018-09-02T16:42:01.263Z,40840.5
2018-09-02T16:43:01.058Z,40609.3
2018-09-02T16:44:01.056Z,40318.7
2018-09-02T16:45:01.059Z,39598.9
2018-09-02T16:46:01.089Z,39013.3
2018-09-02T16:47:01.235Z,38559.6
2018-09-02T16:48:01.056Z,38082.2
2018-09-02T16:49:01.092Z,37762.7
2018-09-02T16:50:01.090Z,37524.4
2018-09-02T16:51:02.120Z,37475.2
2018-09-02T16:52:01.273Z,37708.1
2018-09-02T16:53:01.208Z,38075.9
2018-09-02T16:54:01.090Z,38122.4
2018-09-02T16:55:01.101Z,37802.5
2018-09-02T16:56:01.093Z,37199.1
2018-09-02T16:57:01.339Z,36688.9
2018-09-02T16:58:01.059Z,36401.5
2018-09-02T16:59:01.062Z,36054.1
2018-09-02T17:00:01.058Z,35701.7
2018-09-02T17:01:01.058Z,35277.8
2018-09-02T17:02:01.239Z,34759.5
2018-09-02T17:03:01.060Z,34225.2
2018-09-02T17:04:01.064Z,33625.4
2018-09-02T17:05:01.063Z,32835.0
2018-09-02T17:06:01.137Z,31922.1
2018-09-02T17:07:01.201Z,30901.9
2018-09-02T17:08:01.122Z,29712.4
2018-09-02T17:09:01.060Z,28699.6
2018-09-02T17:10:01.095Z,27874.3
2018-09-02T17:11:01.062Z,27332.8
2018-09-02T17:12:01.289Z,26827.4
2018-09-02T17:13:01.166Z,26291.9
2018-09-02T17:14:01.062Z,25966.1
2018-09-02T17:15:01.067Z,25814.3
2018-09-02T17:16:01.068Z,25836.5
2018-09-02T17:17:01.203Z,25837.0
2018-09-02T17:19:01.048Z,25737.3
2018-09-02T17:20:01.047Z,25665.5
2018-09-02T17:21:01.047Z,25444.1
2018-09-02T17:22:01.081Z,25092.8
2018-09-02T17:23:01.249Z,24672.4
2018-09-02T17:24:01.048Z,24244.7
2018-09-02T17:25:01.147Z,23847.0
2018-09-02T17:26:01.138Z,23502.3
2018-09-02T17:27:01.085Z,23211.6
2018-09-02T17:28:01.263Z,22823.1
2018-09-02T17:29:01.051Z,22309.9
2018-09-02T17:30:01.089Z,21699.4
2018-09-02T17:31:01.055Z,21000.3
2018-09-02T17:32:01.132Z,20224.3
2018-09-02T17:33:01.206Z,19548.7
2018-09-02T17:34:01.086Z,18957.1
2018-09-02T17:35:01.083Z,18280.0
2018-09-02T17:36:01.089Z,17716.4
2018-09-02T17:37:01.059Z,17241.4
2018-09-02T17:38:01.246Z,16810.6
2018-09-02T17:39:01.094Z,16393.9
2018-09-02T17:40:01.055Z,15956.3
2018-09-02T17:41:01.088Z,15477.7
2018-09-02T17:42:01.057Z,14937.2
2018-09-02T17:43:01.243Z,14462.2
2018-09-02T17:44:01.117Z,14047.5
2018-09-02T17:45:01.094Z,13650.3
2018-09-02T17:46:01.220Z,13257.1
2018-09-02T17:47:01.090Z,12865.5
2018-09-02T17:48:01.231Z,12471.3
2018-09-02T17:49:01.097Z,12073.5
2018-09-02T17:50:01.090Z,11679.1
2018-09-02T17:51:01.090Z,11292.9
2018-09-02T17:52:01.066Z,10912.5
2018-09-02T17:53:01.246Z,10533.8
2018-09-02T17:54:01.103Z,10157.7
2018-09-02T17:55:01.059Z,9783.3
2018-09-02T17:56:01.061Z,9410.6
2018-09-02T17:57:01.070Z,9041.0
2018-09-02T17:58:01.235Z,8675.7
2018-09-02T17:59:01.170Z,8315.3
2018-09-02T18:00:01.098Z,7958.5
2018-09-02T18:01:01.100Z,7604.0
2018-09-02T18:02:01.064Z,7253.5
2018-09-02T18:03:01.306Z,6909.7
2018-09-02T18:04:06.107Z,6573.4
2018-09-02T18:05:01.092Z,6244.1
2018-09-02T18:06:01.076Z,5920.7
2018-09-02T18:07:01.104Z,5604.9
2018-09-02T18:08:01.249Z,5296.1
2018-09-02T18:09:01.094Z,4995.4
2018-09-02T18:10:01.095Z,4703.5
2018-09-02T18:11:01.060Z,4420.3
2018-09-02T18:12:01.062Z,4146.7
2018-09-02T18:13:01.301Z,3882.4
2018-09-02T18:14:01.099Z,3626.9
2018-09-02T18:15:01.070Z,3380.9
2018-09-02T18:16:01.086Z,3145.3
2018-09-02T18:17:01.096Z,2919.1
2018-09-02T18:18:01.203Z,2702.9
2018-09-02T18:19:01.127Z,2496.3
2018-09-02T18:20:01.097Z,2299.6
2018-09-02T18:21:01.095Z,2113.3
2018-09-02T18:22:01.065Z,1937.1
2018-09-02T18:23:01.289Z,1771.4
2018-09-02T18:24:01.132Z,1615.6
2018-09-02T18:25:01.102Z,1469.4
2018-09-02T18:26:01.101Z,1332.7
2018-09-02T18:27:01.101Z,1205.2
2018-09-02T18:28:01.241Z,1086.7
2018-09-02T18:30:01.054Z,973.7
2018-09-02T18:31:01.093Z,869.4
2018-09-02T18:32:01.081Z,773.4
2018-09-02T18:33:01.087Z,685.5
2018-09-02T18:34:01.234Z,605.3
2018-09-02T18:35:01.084Z,532.4
2018-09-02T18:36:01.051Z,466.2
2018-09-02T18:37:01.098Z,406.3
2018-09-02T18:38:01.056Z,352.4
2018-09-02T18:39:01.357Z,304.1
2018-09-02T18:40:01.094Z,261.2
2018-09-02T18:41:01.056Z,223.1
2018-09-02T18:42:01.055Z,189.5
2018-09-02T18:43:01.087Z,160.0
2018-09-02T18:44:01.230Z,134.1
2018-09-02T18:45:01.056Z,114.7
2018-09-02T18:46:01.091Z,97.9
2018-09-02T18:47:01.105Z,83.3
2018-09-02T18:48:01.056Z,70.8
2018-09-02T18:49:01.231Z,60.0
2018-09-02T18:50:01.111Z,50.8
2018-09-02T18:51:01.060Z,42.9
2018-09-02T18:52:01.090Z,36.3
2018-09-02T18:53:01.057Z,30.6
2018-09-02T18:54:01.363Z,25.8
2018-09-02T18:55:01.055Z,21.7
2018-09-02T18:56:01.057Z,18.4
2018-09-02T18:57:01.091Z,15.5
2018-09-02T18:58:01.097Z,13.1
2018-09-02T18:59:01.230Z,11.1
2018-09-02T19:00:01.065Z,9.4
2018-09-02T19:01:01.121Z,7.9
2018-09-02T19:02:01.092Z,6.7
2018-09-02T19:03:01.078Z,5.7
2018-09-02T19:04:01.234Z,4.9
2018-09-02T19:05:01.058Z,4.1
2018-09-02T19:06:06.105Z,3.5
2018-09-02T19:07:01.098Z,3.0
2018-09-02T19:08:01.091Z,2.6
2018-09-02T19:09:01.232Z,2.3
2018-09-02T19:10:01.118Z,2.0
2018-09-02T19:11:06.096Z,1.7
2018-09-02T19:12:01.061Z,1.5
2018-09-02T19:13:01.062Z,1.3
2018-09-02T19:14:01.205Z,1.1
2018-09-02T19:15:01.105Z,0.9
2018-09-02T19:16:06.098Z,0.8
2018-09-02T19:17:01.065Z,0.7
2018-09-02T19:18:01.065Z,0.5
2018-09-02T19:20:01.068Z,0.4
2018-09-02T19:21:06.098Z,0.3
2018-09-02T19:23:01.101Z,0.2
2018-09-02T19:24:01.367Z,0.1
